| time (UTC) | temp F | wind direction | speed MPH | gust MPH | rain 1hr in | rain 24hr in | rain mn in | humidity % | barometer mb |
| 20260831193102 | 85 | 252 | 4.0 | 11.0 | 0.00 | 0.00 | 0.00 | 71 | 1010.6 |
| 20260831191601 | 85 | 257 | 1.0 | 7.0 | 0.00 | 0.00 | 0.00 | 73 | 1010.7 |
| 20260831190114 | 84 | 203 | 2.0 | 8.0 | 0.00 | 0.00 | 0.00 | 73 | 1010.7 |
| 20260831184605 | 82 | 209 | 1.0 | 7.0 | 0.00 | 0.00 | 0.00 | 77 | 1010.7 |
| 20260831183105 | 82 | 153 | 2.0 | 7.0 | 0.00 | 0.00 | 0.00 | 75 | 1010.9 |
| 20260831181602 | 82 | 141 | 2.0 | 5.0 | 0.00 | 0.00 | 0.00 | 76 | 1010.8 |
| 20260831180104 | 80 | 210 | 2.0 | 6.0 | 0.00 | 0.00 | 0.00 | 78 | 1010.9 |
| 20260831174610 | 80 | 0 | 0.0 | 5.0 | 0.00 | 0.00 | 0.00 | 80 | 1010.9 |
| 20260831173103 | 79 | 163 | 1.0 | 4.0 | 0.00 | 0.00 | 0.00 | 81 | 1010.9 |
| 20260831171602 | 78 | 148 | 1.0 | 5.0 | 0.00 | 0.00 | 0.00 | 81 | 1011.0 |
| 20260831170059 | 78 | 0 | 1.0 | 6.0 | 0.00 | 0.00 | 0.00 | 82 | 1010.9 |
| 20260831164609 | 77 | 0 | 0.0 | 3.0 | 0.00 | 0.00 | 0.00 | 84 | 1010.8 |
| 20260831163104 | 76 | 202 | 0.0 | 4.0 | 0.00 | 0.00 | 0.00 | 85 | 1010.9 |
| 20260831161602 | 76 | 0 | 0.0 | 5.0 | 0.00 | 0.00 | 0.00 | 85 | 1010.7 |
| 20260831154627 | 76 | 0 | 0.0 | 6.0 | 0.00 | 0.00 | 0.00 | 84 | 1010.7 |
| 20260831153103 | 76 | 170 | 0.0 | 4.0 | 0.00 | 0.00 | 0.00 | 84 | 1010.3 |
| 20260831151607 | 76 | 0 | 2.0 | 5.0 | 0.00 | 0.00 | 0.00 | 84 | 1010.2 |
| 20260831150107 | 76 | 167 | 1.0 | 6.0 | 0.00 | 0.00 | 0.00 | 84 | 1010.0 |
| 20260831144604 | 76 | 131 | 0.0 | 5.0 | 0.00 | 0.00 | 0.00 | 84 | 1009.6 |
| 20260831143116 | 75 | 166 | 0.0 | 5.0 | 0.00 | 0.00 | 0.00 | 85 | 1009.7 |
| 20260831141608 | 74 | 0 | 1.0 | 9.0 | 0.00 | 0.00 | 0.00 | 86 | 1009.7 |
| 20260831134605 | 73 | 239 | 0.0 | 3.0 | 0.00 | 0.00 | 0.00 | 87 | 1009.5 |
| 20260831133103 | 73 | 0 | 1.0 | 4.0 | 0.00 | 0.00 | 0.00 | 87 | 1009.5 |
| 20260831131602 | 73 | 0 | 1.0 | 4.0 | 0.00 | 0.00 | 0.00 | 87 | 1009.5 |
| 20260831130113 | 72 | 188 | 1.0 | 4.0 | 0.00 | 0.00 | 0.00 | 88 | 1009.3 |
| 20260831124604 | 71 | 0 | 1.0 | 4.0 | 0.00 | 0.00 | 0.00 | 89 | 1009.3 |
| 20260831123105 | 71 | 146 | 0.0 | 1.0 | 0.00 | 0.00 | 0.00 | 89 | 1009.1 |
| 20260831121604 | 70 | 0 | 0.0 | 2.0 | 0.00 | 0.00 | 0.00 | 89 | 1009.5 |
| 20260831120111 | 71 | 0 | 0.0 | 0.0 | 0.00 | 0.00 | 0.00 | 89 | 1009.4 |
| 20260831114608 | 71 | 0 | 0.0 | 1.0 | 0.00 | 0.00 | 0.00 | 89 | 1009.4 |
| 20260831113132 | 70 | 0 | 0.0 | 1.0 | 0.00 | 0.00 | 0.00 | 89 | 1009.2 |
| 20260831111558 | 70 | 0 | 0.0 | 2.0 | 0.00 | 0.00 | 0.00 | 90 | 1009.2 |
| 20260831110059 | 70 | 0 | 0.0 | 2.0 | 0.00 | 0.00 | 0.00 | 90 | 1009.3 |
| 20260831104605 | 70 | 0 | 0.0 | 4.0 | 0.00 | 0.00 | 0.00 | 90 | 1009.1 |
| 20260831103118 | 70 | 0 | 0.0 | 2.0 | 0.00 | 0.00 | 0.00 | 90 | 1009.1 |
| 20260831101604 | 70 | 0 | 0.0 | 4.0 | 0.00 | 0.00 | 0.00 | 90 | 1009.1 |
| 20260831100100 | 70 | 0 | 1.0 | 4.0 | 0.00 | 0.00 | 0.00 | 90 | 1009.4 |
| 20260831094612 | 70 | 0 | 0.0 | 3.0 | 0.00 | 0.00 | 0.00 | 91 | 1009.3 |
| 20260831093112 | 69 | 0 | 0.0 | 4.0 | 0.00 | 0.00 | 0.00 | 92 | 1009.2 |
| 20260831091606 | 69 | 0 | 0.0 | 5.0 | 0.00 | 0.00 | 0.00 | 93 | 1009.4 |
| 20260831090108 | 68 | 0 | 0.0 | 4.0 | 0.00 | 0.00 | 0.00 | 93 | 1009.1 |
| 20260831084604 | 67 | 0 | 0.0 | 0.0 | 0.00 | 0.00 | 0.00 | 92 | 1009.3 |
| 20260831083102 | 67 | 0 | 0.0 | 0.0 | 0.00 | 0.00 | 0.00 | 92 | 1009.3 |
| 20260831081609 | 67 | 0 | 0.0 | 0.0 | 0.00 | 0.00 | 0.00 | 92 | 1009.4 |
| 20260831080107 | 67 | 0 | 0.0 | 0.0 | 0.00 | 0.00 | 0.00 | 92 | 1009.7 |
| 20260831074605 | 67 | 0 | 0.0 | 0.0 | 0.00 | 0.00 | 0.00 | 92 | 1009.8 |
| 20260831073100 | 67 | 0 | 0.0 | 0.0 | 0.00 | 0.00 | 0.00 | 92 | 1009.9 |
| 20260831071605 | 67 | 0 | 0.0 | 0.0 | 0.00 | 0.00 | 0.00 | 92 | 1010.1 |
| 20260831070108 | 67 | 0 | 0.0 | 0.0 | 0.00 | 0.00 | 0.00 | 92 | 1010.5 |
| 20260831064605 | 67 | 0 | 0.0 | 0.0 | 0.00 | 0.00 | 0.00 | 92 | 1010.8 |
| 20260831063057 | 67 | 0 | 0.0 | 0.0 | 0.00 | 0.00 | 0.00 | 92 | 1011.0 |
| 20260831061611 | 67 | 0 | 0.0 | 1.0 | 0.00 | 0.00 | 0.00 | 92 | 1011.0 |
| 20260831060110 | 67 | 0 | 0.0 | 0.0 | 0.00 | 0.00 | 0.00 | 92 | 1011.4 |
| 20260831054614 | 68 | 0 | 0.0 | 0.0 | 0.00 | 0.00 | 0.00 | 91 | 1011.3 |
| 20260831053101 | 68 | 0 | 0.0 | 0.0 | 0.00 | 0.00 | 0.00 | 91 | 1011.4 |
| 20260831051611 | 68 | 0 | 0.0 | 0.0 | 0.00 | 0.00 | 0.00 | 91 | 1012.0 |
| 20260831050104 | 68 | 0 | 0.0 | 0.0 | 0.00 | 0.00 | 0.00 | 91 | 1011.9 |
| 20260831044614 | 68 | 0 | 0.0 | 0.0 | 0.00 | 0.00 | 0.00 | 91 | 1011.8 |
| 20260831043056 | 68 | 0 | 0.0 | 0.0 | 0.00 | 0.00 | 0.00 | 91 | 1011.5 |
| 20260831041600 | 68 | 0 | 0.0 | 0.0 | 0.00 | 0.00 | 0.00 | 90 | 1011.5 |
| 20260831040057 | 68 | 0 | 0.0 | 0.0 | 0.00 | 0.00 | 0.00 | 90 | 1011.8 |
| 20260831034604 | 68 | 0 | 0.0 | 0.0 | 0.00 | 0.00 | 0.00 | 90 | 1012.0 |
| 20260831033106 | 68 | 0 | 0.0 | 0.0 | 0.00 | 0.00 | 0.00 | 90 | 1012.0 |
| 20260831031559 | 68 | 0 | 0.0 | 0.0 | 0.00 | 0.00 | 0.00 | 89 | 1012.0 |
| 20260831030106 | 68 | 0 | 0.0 | 0.0 | 0.00 | 0.00 | 0.00 | 89 | 1012.1 |
| 20260831024605 | 68 | 0 | 0.0 | 0.0 | 0.00 | 0.00 | 0.00 | 89 | 1012.2 |
| 20260831023108 | 69 | 0 | 0.0 | 0.0 | 0.00 | 0.00 | 0.00 | 89 | 1012.4 |
| 20260831021606 | 69 | 0 | 0.0 | 0.0 | 0.00 | 0.00 | 0.00 | 88 | 1012.3 |
| 20260831020107 | 69 | 0 | 0.0 | 0.0 | 0.00 | 0.00 | 0.00 | 88 | 1012.5 |
| 20260831014604 | 69 | 0 | 0.0 | 0.0 | 0.00 | 0.00 | 0.00 | 88 | 1012.3 |
| 20260831013110 | 69 | 0 | 0.0 | 1.0 | 0.00 | 0.00 | 0.00 | 88 | 1012.1 |
| 20260831011603 | 69 | 0 | 0.0 | 2.0 | 0.00 | 0.00 | 0.00 | 87 | 1011.8 |
| 20260831010107 | 69 | 0 | 0.0 | 0.0 | 0.00 | 0.00 | 0.00 | 87 | 1011.9 |
| 20260831004605 | 69 | 0 | 0.0 | 1.0 | 0.00 | 0.00 | 0.00 | 87 | 1012.1 |
| 20260831003111 | 70 | 0 | 0.0 | 1.0 | 0.00 | 0.00 | 0.00 | 86 | 1012.3 |
| 20260831001600 | 70 | 0 | 0.0 | 1.0 | 0.00 | 0.00 | 0.00 | 86 | 1012.4 |
| 20260831000107 | 70 | 0 | 0.0 | 1.0 | 0.00 | 0.00 | 0.00 | 86 | 1012.4 |
| 20260830234607 | 70 | 23 | 0.0 | 3.0 | 0.00 | 0.00 | 0.00 | 86 | 1012.2 |
| 20260830233107 | 70 | 26 | 0.0 | 3.0 | 0.00 | 0.00 | 0.00 | 86 | 1012.3 |
| 20260830231608 | 70 | 0 | 0.0 | 1.0 | 0.00 | 0.00 | 0.00 | 85 | 1012.4 |
| 20260830230107 | 70 | 0 | 1.0 | 4.0 | 0.00 | 0.00 | 0.00 | 85 | 1012.5 |
| 20260830224604 | 70 | 44 | 0.0 | 4.0 | 0.00 | 0.00 | 0.00 | 86 | 1012.5 |
| 20260830223111 | 70 | 38 | 0.0 | 2.0 | 0.00 | 0.00 | 0.00 | 86 | 1012.3 |
| 20260830221609 | 69 | 0 | 0.0 | 3.0 | 0.00 | 0.00 | 0.00 | 86 | 1012.0 |
| 20260830220106 | 70 | 0 | 0.0 | 1.0 | 0.00 | 0.00 | 0.00 | 85 | 1012.6 |
| 20260830214620 | 70 | 5 | 0.0 | 5.0 | 0.00 | 0.00 | 0.00 | 85 | 1012.6 |
| 20260830213103 | 70 | 40 | 0.0 | 2.0 | 0.00 | 0.00 | 0.00 | 85 | 1012.7 |
| 20260830211610 | 71 | 0 | 1.0 | 5.0 | 0.00 | 0.00 | 0.00 | 84 | 1012.6 |
| 20260830210119 | 71 | 46 | 0.0 | 7.0 | 0.00 | 0.00 | 0.00 | 83 | 1012.8 |
| 20260830204608 | 73 | 38 | 1.0 | 4.0 | 0.00 | 0.00 | 0.00 | 81 | 1012.6 |
| 20260830203104 | 75 | 0 | 2.0 | 6.0 | 0.00 | 0.00 | 0.00 | 79 | 1012.6 |
| 20260830201601 | 77 | 0 | 0.0 | 3.0 | 0.00 | 0.00 | 0.00 | 77 | 1012.8 |
| 20260830200105 | 77 | 70 | 0.0 | 6.0 | 0.00 | 0.00 | 0.00 | 77 | 1012.6 |
| 20260830194605 | 76 | 22 | 0.0 | 5.0 | 0.00 | 0.00 | 0.00 | 77 | 1012.5 |